Time;durP1;ratioP1;P1;durP2;ratioP2;P2;SDS_P1;SDS_P2;PMS_P1;PMS_P2;Temp;Humidity;BMP_temperature;BMP_pressure;BME280_temperature;BME280_humidity;BME280_pressure;Samples;Min_cycle;Max_cycle;Signal;HPM_P1;HPM_P2
2023/08/19 00:01:12;;;;;;;5.47;2.38;;;23.60;99.90;;;;;;4990741;28;20501;-82
2023/08/19 00:03:39;;;;;;;5.60;2.30;;;23.60;99.90;;;;;;5000787;28;20057;-82
2023/08/19 00:06:08;;;;;;;6.22;2.58;;;23.60;99.90;;;;;;4996946;28;20050;-82
2023/08/19 00:08:36;;;;;;;2.88;1.95;;;23.60;99.90;;;;;;4995169;28;20113;-82
2023/08/19 00:11:03;;;;;;;5.43;2.15;;;23.60;99.90;;;;;;4991640;28;20469;-82
2023/08/19 00:13:30;;;;;;;4.53;2.53;;;23.60;99.90;;;;;;5008154;28;20050;-82
2023/08/19 00:15:57;;;;;;;4.43;2.45;;;23.60;99.90;;;;;;4993548;28;20080;-81
2023/08/19 00:18:24;;;;;;;6.70;2.92;;;23.60;99.90;;;;;;5012943;28;20054;-83
2023/08/19 00:20:51;;;;;;;5.15;2.60;;;23.60;99.90;;;;;;4999184;28;20045;-82
2023/08/19 00:23:18;;;;;;;6.35;2.78;;;23.60;99.90;;;;;;5005181;28;20459;-81
2023/08/19 00:25:44;;;;;;;5.72;3.08;;;23.50;99.90;;;;;;4991098;28;20128;-81
2023/08/19 00:28:13;;;;;;;5.45;2.50;;;23.50;99.90;;;;;;4990802;28;20078;-82
2023/08/19 00:30:40;;;;;;;4.45;2.58;;;23.50;99.90;;;;;;4991431;28;20433;-82
2023/08/19 00:33:07;;;;;;;8.63;4.20;;;23.50;99.90;;;;;;4998986;28;20062;-82
2023/08/19 00:35:33;;;;;;;3.97;2.92;;;23.50;99.90;;;;;;4998430;28;20517;-81
2023/08/19 00:38:00;;;;;;;5.68;2.72;;;23.40;99.90;;;;;;4993815;28;20101;-81
2023/08/19 00:40:27;;;;;;;5.75;2.72;;;23.40;99.90;;;;;;4991799;28;20051;-82
2023/08/19 00:42:54;;;;;;;7.90;3.08;;;23.40;99.90;;;;;;4993753;28;20121;-81
2023/08/19 00:45:20;;;;;;;5.10;3.10;;;23.40;99.90;;;;;;4991055;28;20502;-82
2023/08/19 00:47:47;;;;;;;3.72;2.33;;;23.30;99.90;;;;;;5000247;28;20137;-83
2023/08/19 00:50:15;;;;;;;8.82;3.42;;;23.30;99.90;;;;;;4993632;28;20556;-81
2023/08/19 00:52:44;;;;;;;3.65;2.63;;;23.30;99.90;;;;;;4995065;28;20142;-82
2023/08/19 00:55:10;;;;;;;8.02;3.53;;;23.20;99.90;;;;;;4987030;28;20552;-82
2023/08/19 00:57:38;;;;;;;3.38;2.72;;;23.30;99.90;;;;;;4991581;28;20051;-81
2023/08/19 01:00:06;;;;;;;7.82;3.70;;;23.20;99.90;;;;;;4994441;28;20043;-82
2023/08/19 01:02:33;;;;;;;5.93;3.17;;;23.20;99.90;;;;;;4997158;28;20046;-81
2023/08/19 01:05:00;;;;;;;4.55;2.95;;;23.20;99.90;;;;;;4993867;28;20056;-82
2023/08/19 01:07:37;;;;;;;8.30;3.13;;;23.20;99.90;;;;;;4990853;28;20058;-81
2023/08/19 01:10:27;;;;;;;3.90;2.83;;;23.20;99.90;;;;;;4989537;28;20061;-82
2023/08/19 01:13:09;;;;;;;7.25;3.38;;;23.10;99.90;;;;;;4994118;28;20046;-83
2023/08/19 01:15:43;;;;;;;9.90;3.10;;;23.20;99.90;;;;;;5002415;28;20050;-81
2023/08/19 01:18:11;;;;;;;12.25;3.38;;;23.10;99.90;;;;;;4991031;28;20457;-82
2023/08/19 01:20:39;;;;;;;7.50;3.25;;;23.10;99.90;;;;;;4998240;28;20077;-82
2023/08/19 01:23:25;;;;;;;8.15;3.78;;;23.10;99.90;;;;;;4992694;28;20106;-82
2023/08/19 01:25:52;;;;;;;8.15;3.20;;;23.10;99.90;;;;;;4993017;28;20058;-82
2023/08/19 01:28:20;;;;;;;6.90;4.07;;;23.00;99.90;;;;;;4994985;28;20050;-82
2023/08/19 01:30:47;;;;;;;6.50;3.30;;;23.00;99.90;;;;;;5001608;28;20047;-82
2023/08/19 01:33:14;;;;;;;7.07;3.65;;;23.00;99.90;;;;;;4995535;28;20086;-81
2023/08/19 01:35:53;;;;;;;7.40;3.65;;;23.00;99.90;;;;;;4996599;28;20232;-82
2023/08/19 01:38:34;;;;;;;7.97;4.13;;;23.00;99.90;;;;;;4986639;28;20050;-81
2023/08/19 01:41:03;;;;;;;6.55;3.28;;;22.90;99.90;;;;;;4993787;28;20054;-82
2023/08/19 01:43:31;;;;;;;7.30;4.07;;;22.90;99.90;;;;;;4996835;28;20557;-82
2023/08/19 01:45:58;;;;;;;4.40;3.35;;;23.00;99.90;;;;;;4995033;28;20054;-82
2023/08/19 01:48:25;;;;;;;8.60;4.00;;;22.90;99.90;;;;;;4988817;28;20081;-82
2023/08/19 01:50:51;;;;;;;9.38;3.78;;;22.90;99.90;;;;;;4992570;28;20073;-82
2023/08/19 01:53:18;;;;;;;8.00;3.78;;;22.90;99.90;;;;;;4985290;28;20046;-82
2023/08/19 01:55:45;;;;;;;8.00;4.05;;;22.80;99.90;;;;;;4991413;28;20047;-81
2023/08/19 01:58:12;;;;;;;9.38;4.00;;;22.80;99.90;;;;;;4995834;28;20092;-82
2023/08/19 02:00:38;;;;;;;11.07;4.05;;;22.80;99.90;;;;;;4998519;28;20482;-82
2023/08/19 02:03:07;;;;;;;7.78;4.18;;;22.80;99.90;;;;;;4990346;28;20054;-82
2023/08/19 02:05:34;;;;;;;9.35;4.10;;;22.80;99.90;;;;;;4991385;28;20137;-82
2023/08/19 02:08:00;;;;;;;7.95;4.55;;;22.80;99.90;;;;;;4987979;28;20078;-82
2023/08/19 02:10:27;;;;;;;6.78;3.67;;;22.70;99.90;;;;;;5006374;28;20047;-82
2023/08/19 02:12:54;;;;;;;8.80;4.10;;;22.70;99.90;;;;;;5000285;28;20112;-82
2023/08/19 02:15:20;;;;;;;6.78;4.10;;;22.70;99.90;;;;;;5010995;28;20051;-82
2023/08/19 02:17:47;;;;;;;6.47;3.75;;;22.70;99.90;;;;;;4992640;28;20047;-81
2023/08/19 02:20:14;;;;;;;5.72;3.83;;;22.60;99.90;;;;;;4994487;28;20145;-82
2023/08/19 02:22:41;;;;;;;8.55;4.05;;;22.70;99.90;;;;;;4988866;28;20051;-82
2023/08/19 02:25:08;;;;;;;9.05;4.35;;;22.60;99.90;;;;;;4994077;28;20056;-82
2023/08/19 02:27:36;;;;;;;6.50;4.20;;;22.60;99.90;;;;;;4994679;28;20050;-82
2023/08/19 02:30:05;;;;;;;9.38;4.30;;;22.60;99.90;;;;;;4996797;28;20116;-82
2023/08/19 02:32:31;;;;;;;11.30;4.65;;;22.60;99.90;;;;;;4987783;28;20101;-82
2023/08/19 02:35:00;;;;;;;5.50;3.63;;;22.60;99.90;;;;;;4992656;28;20045;-82
2023/08/19 02:37:26;;;;;;;7.90;4.15;;;22.50;99.90;;;;;;4986006;28;20073;-82
2023/08/19 02:39:53;;;;;;;11.40;4.25;;;22.60;99.90;;;;;;4994281;28;20583;-82
2023/08/19 02:42:20;;;;;;;6.50;3.88;;;22.60;99.90;;;;;;4993101;28;20117;-82
2023/08/19 02:44:47;;;;;;;7.90;3.80;;;22.50;99.90;;;;;;4998924;28;20041;-80
2023/08/19 02:47:13;;;;;;;9.43;4.18;;;22.50;99.90;;;;;;4999704;28;20085;-82
2023/08/19 02:49:40;;;;;;;10.45;3.90;;;22.40;99.90;;;;;;5005434;28;20082;-81
2023/08/19 02:52:07;;;;;;;6.80;3.75;;;22.50;99.90;;;;;;5000735;28;20043;-83
2023/08/19 02:54:33;;;;;;;6.72;4.38;;;22.40;99.90;;;;;;5007896;28;20078;-82
2023/08/19 02:57:00;;;;;;;6.82;4.20;;;22.40;99.90;;;;;;5015114;28;20064;-81
2023/08/19 02:59:27;;;;;;;7.32;3.80;;;22.40;99.90;;;;;;5005720;28;20043;-82
2023/08/19 03:01:54;;;;;;;6.35;3.85;;;22.30;99.90;;;;;;4999948;28;20055;-82
2023/08/19 03:04:21;;;;;;;9.50;4.10;;;22.30;99.90;;;;;;4991335;28;20101;-82
2023/08/19 03:06:48;;;;;;;7.53;3.92;;;22.30;99.90;;;;;;4991914;28;20050;-81
2023/08/19 03:09:14;;;;;;;9.27;3.90;;;22.30;99.90;;;;;;4997173;28;20085;-82
2023/08/19 03:11:41;;;;;;;12.23;4.03;;;22.30;99.90;;;;;;4996048;28;20070;-82
2023/08/19 03:14:08;;;;;;;8.35;4.28;;;22.20;99.90;;;;;;4994791;28;20104;-81
2023/08/19 03:16:35;;;;;;;8.98;4.63;;;22.20;99.90;;;;;;4990093;28;20046;-82
2023/08/19 03:19:01;;;;;;;5.93;3.83;;;22.20;99.90;;;;;;4988027;28;20070;-82
2023/08/19 03:21:28;;;;;;;7.18;5.13;;;22.20;99.90;;;;;;4991912;28;20042;-82
2023/08/19 03:23:55;;;;;;;7.50;3.90;;;22.10;99.90;;;;;;5003330;28;20054;-82
2023/08/19 03:26:22;;;;;;;7.00;4.53;;;22.10;99.90;;;;;;5001742;28;20514;-82
2023/08/19 03:28:48;;;;;;;10.13;4.93;;;22.10;99.90;;;;;;4995503;28;20047;-82
2023/08/19 03:31:15;;;;;;;5.97;3.90;;;22.10;99.90;;;;;;4994792;28;20042;-83
2023/08/19 03:33:42;;;;;;;8.50;3.90;;;22.10;99.90;;;;;;4987045;28;20050;-82
2023/08/19 03:36:09;;;;;;;6.10;4.00;;;22.00;99.90;;;;;;4995284;28;20046;-82
2023/08/19 03:38:36;;;;;;;5.50;3.53;;;22.00;99.90;;;;;;4998284;28;20074;-81
2023/08/19 03:41:02;;;;;;;6.63;4.00;;;22.00;99.90;;;;;;5001473;28;20053;-82
2023/08/19 03:43:29;;;;;;;5.82;3.67;;;22.00;99.90;;;;;;4993507;28;20117;-82
2023/08/19 03:45:56;;;;;;;9.38;4.10;;;22.00;99.90;;;;;;4992878;28;20050;-82
2023/08/19 03:48:23;;;;;;;6.22;4.28;;;22.00;99.90;;;;;;4988304;28;20049;-82
2023/08/19 03:50:49;;;;;;;7.38;4.53;;;22.00;99.90;;;;;;4998050;28;20058;-82
2023/08/19 03:53:16;;;;;;;5.10;3.78;;;21.90;99.90;;;;;;4999163;28;20042;-82
2023/08/19 03:55:43;;;;;;;7.00;3.53;;;21.90;99.90;;;;;;4994303;28;20047;-82
2023/08/19 03:58:09;;;;;;;7.82;3.80;;;21.90;99.90;;;;;;4993853;28;20045;-82
2023/08/19 04:00:37;;;;;;;8.10;3.75;;;21.90;99.90;;;;;;4991352;28;20121;-82
2023/08/19 04:03:04;;;;;;;8.38;3.97;;;21.90;99.90;;;;;;4986263;28;20054;-83
2023/08/19 04:05:31;;;;;;;5.78;3.85;;;21.90;99.90;;;;;;4995610;28;20051;-80
2023/08/19 04:07:57;;;;;;;10.80;3.97;;;21.80;99.90;;;;;;4998028;28;20478;-82
2023/08/19 04:10:24;;;;;;;13.05;4.35;;;21.80;99.90;;;;;;4992557;28;20122;-82
2023/08/19 04:12:51;;;;;;;8.75;3.85;;;21.80;99.90;;;;;;4993389;28;20042;-83
2023/08/19 04:15:17;;;;;;;8.82;3.45;;;21.80;99.90;;;;;;4991084;28;20042;-82
2023/08/19 04:17:44;;;;;;;9.43;4.32;;;21.70;99.90;;;;;;4984462;28;20047;-80
2023/08/19 04:20:13;;;;;;;9.65;4.40;;;21.70;99.90;;;;;;4998234;28;20045;-82
2023/08/19 04:22:40;;;;;;;4.40;3.42;;;21.70;99.90;;;;;;4995003;28;20046;-82
2023/08/19 04:25:07;;;;;;;7.43;3.60;;;21.70;99.90;;;;;;4989231;28;20049;-82
2023/08/19 04:27:34;;;;;;;8.43;3.97;;;21.70;99.90;;;;;;4991045;28;20108;-81
2023/08/19 04:30:01;;;;;;;9.43;3.13;;;21.70;99.90;;;;;;4997136;28;20054;-82
2023/08/19 04:32:28;;;;;;;5.53;3.42;;;21.70;99.90;;;;;;4986260;28;20047;-81
2023/08/19 04:34:54;;;;;;;5.88;3.35;;;21.60;99.90;;;;;;5000617;28;20046;-82
2023/08/19 04:37:21;;;;;;;7.22;3.60;;;21.60;99.90;;;;;;4996999;28;20043;-82
2023/08/19 04:39:48;;;;;;;6.18;3.95;;;21.60;99.90;;;;;;4996561;28;20043;-82
2023/08/19 04:42:15;;;;;;;6.80;3.75;;;21.60;99.90;;;;;;4990616;28;20493;-82
2023/08/19 04:44:41;;;;;;;6.15;3.63;;;21.60;99.90;;;;;;4995401;28;20053;-82
2023/08/19 04:47:09;;;;;;;9.63;3.70;;;21.60;99.90;;;;;;4990466;28;20050;-82
2023/08/19 04:49:35;;;;;;;8.13;4.28;;;21.60;99.90;;;;;;5001951;28;20449;-83
2023/08/19 04:52:04;;;;;;;6.28;3.55;;;21.60;99.90;;;;;;4998235;28;20105;-82
2023/08/19 04:54:31;;;;;;;6.03;3.78;;;21.60;99.90;;;;;;4996762;28;20042;-81
2023/08/19 04:56:58;;;;;;;5.72;4.00;;;21.60;99.90;;;;;;4993376;28;20138;-82
2023/08/19 04:59:24;;;;;;;7.78;4.20;;;21.60;99.90;;;;;;4997976;28;20043;-81
2023/08/19 05:01:51;;;;;;;8.02;4.65;;;21.60;99.90;;;;;;4989993;28;20063;-80
2023/08/19 05:04:18;;;;;;;5.18;3.97;;;21.60;99.90;;;;;;4997656;28;20092;-81
2023/08/19 05:06:45;;;;;;;7.35;3.97;;;21.60;99.90;;;;;;4994827;28;20081;-81
2023/08/19 05:09:13;;;;;;;6.47;3.72;;;21.60;99.90;;;;;;4997459;28;20046;-81
2023/08/19 05:11:40;;;;;;;6.68;4.75;;;21.60;99.90;;;;;;4987625;28;20057;-82
2023/08/19 05:14:07;;;;;;;8.07;4.18;;;21.60;99.90;;;;;;4994953;28;20394;-82
2023/08/19 05:16:34;;;;;;;5.70;3.92;;;21.60;99.90;;;;;;4991510;28;20043;-82
2023/08/19 05:19:14;;;;;;;8.82;4.75;;;21.60;99.90;;;;;;5000800;28;20610;-82
2023/08/19 05:21:41;;;;;;;6.05;3.60;;;21.70;99.90;;;;;;4993509;28;20077;-82
2023/08/19 05:24:10;;;;;;;5.68;4.18;;;21.70;99.90;;;;;;4995331;28;20046;-81
2023/08/19 05:26:44;;;;;;;4.20;3.78;;;21.80;99.90;;;;;;4986218;28;20042;-83
2023/08/19 05:29:12;;;;;;;4.85;3.67;;;21.80;99.90;;;;;;5008609;28;20081;-82
2023/08/19 05:31:40;;;;;;;7.47;4.25;;;21.80;99.90;;;;;;4997668;28;20046;-82
2023/08/19 05:34:08;;;;;;;8.85;4.55;;;21.80;99.90;;;;;;4999416;28;20053;-82
2023/08/19 05:36:34;;;;;;;6.78;4.15;;;21.90;99.90;;;;;;4992938;28;20120;-82
2023/08/19 05:39:02;;;;;;;7.70;3.90;;;21.90;99.90;;;;;;4997172;28;20085;-82
2023/08/19 05:41:28;;;;;;;6.35;3.88;;;22.00;99.90;;;;;;4986863;28;20057;-81
2023/08/19 05:43:55;;;;;;;5.88;3.63;;;22.00;99.90;;;;;;4994101;28;20082;-82
2023/08/19 05:46:22;;;;;;;6.85;3.63;;;22.00;99.90;;;;;;4995272;28;20494;-82
2023/08/19 05:48:49;;;;;;;6.38;3.90;;;22.10;99.90;;;;;;4996336;28;20470;-81
2023/08/19 05:51:16;;;;;;;7.38;4.03;;;22.10;99.90;;;;;;4991703;28;20110;-81
2023/08/19 05:53:42;;;;;;;6.15;3.63;;;22.10;99.90;;;;;;4994874;28;20039;-81
2023/08/19 05:56:09;;;;;;;7.82;4.35;;;22.20;99.90;;;;;;4986657;28;20177;-82
2023/08/19 05:58:37;;;;;;;7.32;4.35;;;22.20;99.90;;;;;;4992326;28;20047;-82
2023/08/19 06:01:04;;;;;;;9.52;3.53;;;22.30;99.90;;;;;;4998399;28;20042;-82
2023/08/19 06:03:31;;;;;;;7.40;3.85;;;22.30;99.90;;;;;;4996053;28;20057;-82
2023/08/19 06:06:05;;;;;;;6.93;3.20;;;22.30;99.90;;;;;;5007303;28;20051;-82
2023/08/19 06:08:32;;;;;;;6.25;3.42;;;22.40;99.90;;;;;;4992569;28;20509;-81
2023/08/19 06:11:02;;;;;;;5.47;4.07;;;22.40;99.90;;;;;;4985243;28;20050;-82
2023/08/19 06:13:29;;;;;;;7.97;4.80;;;22.50;99.90;;;;;;4993549;28;20042;-82
2023/08/19 06:15:56;;;;;;;7.03;2.97;;;22.50;99.90;;;;;;4991387;28;20057;-82
2023/08/19 06:18:24;;;;;;;9.50;3.92;;;22.50;99.90;;;;;;4994120;28;20042;-82
2023/08/19 06:20:52;;;;;;;5.25;3.13;;;22.60;99.90;;;;;;4988455;28;20054;-82
2023/08/19 06:23:20;;;;;;;7.15;4.05;;;22.60;99.90;;;;;;4994641;28;20112;-82
2023/08/19 06:25:49;;;;;;;9.65;3.55;;;22.70;99.90;;;;;;4985174;28;20117;-82
2023/08/19 06:28:16;;;;;;;5.40;3.38;;;22.80;99.90;;;;;;5002445;28;20050;-82
2023/08/19 06:30:44;;;;;;;6.90;3.78;;;22.80;99.90;;;;;;5002325;28;20053;-82
2023/08/19 06:33:12;;;;;;;7.38;3.70;;;22.90;99.90;;;;;;4997943;28;20041;-83
2023/08/19 06:35:39;;;;;;;6.70;3.33;;;22.90;99.90;;;;;;4988018;28;20105;-81
2023/08/19 06:38:23;;;;;;;5.28;3.25;;;23.00;99.90;;;;;;4996045;28;20047;-82
2023/08/19 06:41:07;;;;;;;6.00;3.80;;;23.10;99.90;;;;;;4983903;28;20051;-82
2023/08/19 06:43:36;;;;;;;5.45;3.38;;;23.10;99.90;;;;;;4994423;28;20116;-82
2023/08/19 06:46:05;;;;;;;4.03;3.35;;;23.20;99.90;;;;;;4997084;28;20470;-82
2023/08/19 06:48:33;;;;;;;5.78;3.60;;;23.20;99.90;;;;;;4992148;28;20051;-82
2023/08/19 06:51:00;;;;;;;6.47;3.55;;;23.30;99.90;;;;;;4998457;28;20125;-82
2023/08/19 06:53:28;;;;;;;6.50;3.45;;;23.40;99.90;;;;;;4991434;28;20046;-82
2023/08/19 06:56:04;;;;;;;3.88;3.25;;;23.50;99.90;;;;;;4983686;28;20046;-83
2023/08/19 06:58:37;;;;;;;6.68;3.58;;;23.60;99.90;;;;;;4995724;28;20046;-82
2023/08/19 07:01:11;;;;;;;4.68;3.10;;;23.60;99.90;;;;;;4996417;28;20051;-82
2023/08/19 07:03:39;;;;;;;4.18;3.35;;;23.80;99.90;;;;;;4993510;28;20066;-82
2023/08/19 07:06:08;;;;;;;5.50;3.55;;;23.90;99.90;;;;;;4989548;28;20109;-82
2023/08/19 07:08:39;;;;;;;5.57;3.30;;;24.10;99.90;;;;;;4991330;28;20054;-82
2023/08/19 07:11:07;;;;;;;6.55;3.22;;;24.20;99.90;;;;;;4993975;28;20054;-83
2023/08/19 07:13:34;;;;;;;5.18;3.10;;;24.40;99.90;;;;;;4995566;28;20042;-82
2023/08/19 07:16:03;;;;;;;8.10;3.40;;;24.50;99.90;;;;;;4996059;28;20066;-82
2023/08/19 07:18:35;;;;;;;7.33;3.03;;;24.70;99.90;;;;;;4993418;28;20061;-83
2023/08/19 07:21:04;;;;;;;6.97;3.30;;;24.80;99.90;;;;;;4991450;28;20074;-83
2023/08/19 07:23:31;;;;;;;6.88;3.15;;;24.90;99.90;;;;;;4992855;28;20474;-83
2023/08/19 07:25:58;;;;;;;8.13;3.40;;;25.00;99.90;;;;;;4992554;28;20054;-83
2023/08/19 07:28:26;;;;;;;10.07;3.05;;;25.10;99.90;;;;;;4994638;28;20054;-82
2023/08/19 07:30:52;;;;;;;8.07;3.00;;;25.10;99.90;;;;;;4993803;28;20054;-83
2023/08/19 07:33:19;;;;;;;4.72;2.80;;;25.20;99.90;;;;;;4995360;28;20046;-82
2023/08/19 07:35:46;;;;;;;6.03;3.33;;;25.20;99.90;;;;;;4986595;28;20047;-83
2023/08/19 07:38:13;;;;;;;4.90;3.47;;;25.20;99.90;;;;;;4994093;28;20054;-82
2023/08/19 07:40:40;;;;;;;6.57;3.00;;;25.30;99.90;;;;;;4998099;28;20465;-82
2023/08/19 07:43:07;;;;;;;9.77;2.80;;;25.30;99.90;;;;;;5000180;28;20050;-83
2023/08/19 07:45:35;;;;;;;5.38;3.28;;;25.30;99.90;;;;;;4998190;28;20054;-82
2023/08/19 07:48:02;;;;;;;6.60;3.00;;;25.30;99.90;;;;;;4998688;28;20446;-82
2023/08/19 07:50:29;;;;;;;5.30;2.72;;;25.30;99.90;;;;;;4993349;28;20077;-83
2023/08/19 07:52:56;;;;;;;4.80;2.85;;;25.40;99.90;;;;;;4991797;28;20070;-82
2023/08/19 07:55:22;;;;;;;4.05;2.53;;;25.50;99.90;;;;;;5002989;28;20042;-83
2023/08/19 07:57:49;;;;;;;5.18;2.47;;;25.50;99.90;;;;;;4993713;28;20117;-83
2023/08/19 08:00:16;;;;;;;5.45;2.13;;;25.60;99.90;;;;;;4997798;28;20514;-83
2023/08/19 08:02:42;;;;;;;4.32;2.00;;;25.70;99.90;;;;;;4997211;28;20058;-82
2023/08/19 08:05:09;;;;;;;3.95;2.20;;;25.90;99.90;;;;;;4992695;28;20046;-83
2023/08/19 08:07:37;;;;;;;3.22;2.45;;;26.10;99.90;;;;;;5000467;28;20048;-83
2023/08/19 08:10:04;;;;;;;10.05;2.90;;;26.20;99.90;;;;;;5001908;28;20501;-83
2023/08/19 08:12:32;;;;;;;6.07;2.15;;;26.30;99.90;;;;;;5000306;28;20082;-83
2023/08/19 08:14:59;;;;;;;2.97;2.05;;;26.50;99.90;;;;;;4995248;28;20097;-82
2023/08/19 08:17:26;;;;;;;8.98;2.22;;;26.50;99.90;;;;;;4998585;28;20046;-83
2023/08/19 08:19:55;;;;;;;5.75;2.67;;;26.60;99.90;;;;;;4988814;28;20084;-82
2023/08/19 08:22:23;;;;;;;7.97;2.33;;;26.60;99.90;;;;;;5001193;28;20046;-82
2023/08/19 08:24:49;;;;;;;4.65;2.22;;;26.70;99.90;;;;;;5000805;28;20050;-83
2023/08/19 08:27:16;;;;;;;4.40;2.15;;;26.70;99.90;;;;;;4999558;28;20133;-82
2023/08/19 08:29:43;;;;;;;6.90;2.47;;;26.70;99.90;;;;;;4992316;28;20426;-82
2023/08/19 08:32:10;;;;;;;5.18;2.20;;;26.80;99.90;;;;;;4997920;28;20091;-83
2023/08/19 08:34:36;;;;;;;3.92;2.30;;;26.80;99.90;;;;;;4987787;28;20093;-83
2023/08/19 08:37:03;;;;;;;7.50;2.20;;;26.90;99.90;;;;;;4999763;28;20106;-82
2023/08/19 08:39:30;;;;;;;3.45;2.13;;;27.00;99.90;;;;;;5003862;28;20118;-82
2023/08/19 08:41:58;;;;;;;4.82;1.90;;;27.00;99.90;;;;;;4998499;28;20047;-82
2023/08/19 08:44:28;;;;;;;3.30;2.17;;;27.10;99.90;;;;;;4990763;28;20069;-83
2023/08/19 08:46:56;;;;;;;4.60;2.10;;;27.30;99.90;;;;;;4995423;28;20498;-83
2023/08/19 08:49:27;;;;;;;5.00;1.92;;;27.40;99.90;;;;;;4988371;28;20047;-82
2023/08/19 08:51:55;;;;;;;3.60;2.03;;;27.50;99.90;;;;;;5002702;28;20051;-83
2023/08/19 08:54:23;;;;;;;7.15;2.03;;;27.60;99.90;;;;;;4999311;28;20580;-82
2023/08/19 08:56:49;;;;;;;6.57;2.17;;;27.70;99.90;;;;;;4997782;28;20494;-83
2023/08/19 08:59:17;;;;;;;4.22;2.20;;;27.90;99.90;;;;;;4993897;28;20054;-83
2023/08/19 09:01:45;;;;;;;5.18;2.08;;;28.00;99.90;;;;;;4996870;28;20051;-83
2023/08/19 09:04:14;;;;;;;7.75;1.95;;;28.20;99.90;;;;;;5006216;28;20082;-82
2023/08/19 09:06:42;;;;;;;4.28;1.90;;;28.30;99.90;;;;;;5001802;28;20046;-83
2023/08/19 09:09:12;;;;;;;8.05;2.40;;;28.50;99.90;;;;;;4999629;28;20056;-83
2023/08/19 09:11:41;;;;;;;4.05;2.03;;;28.60;99.90;;;;;;5004859;28;20046;-83
2023/08/19 09:14:32;;;;;;;4.50;2.22;;;28.70;99.90;;;;;;4993455;28;20042;-82
2023/08/19 09:16:59;;;;;;;3.55;2.38;;;28.90;99.90;;;;;;4995707;28;20517;-83
2023/08/19 09:19:28;;;;;;;4.35;2.13;;;29.00;99.90;;;;;;4993370;28;20096;-82
2023/08/19 09:21:55;;;;;;;5.00;2.20;;;29.10;99.90;;;;;;4997036;28;20061;-83
2023/08/19 09:24:22;;;;;;;8.57;2.70;;;29.20;99.90;;;;;;4998628;28;20051;-82
2023/08/19 09:26:56;;;;;;;4.28;2.17;;;29.30;99.90;;;;;;4993809;28;20051;-83
2023/08/19 09:29:23;;;;;;;2.42;1.85;;;29.40;99.70;;;;;;4993028;28;20058;-82
2023/08/19 09:31:53;;;;;;;4.38;2.22;;;29.40;99.80;;;;;;4994517;28;20047;-83
2023/08/19 09:34:20;;;;;;;7.55;2.20;;;29.50;99.90;;;;;;4997826;28;20058;-83
2023/08/19 09:36:47;;;;;;;5.32;1.75;;;29.40;99.50;;;;;;4997374;28;20510;-83
2023/08/19 09:39:13;;;;;;;2.78;2.05;;;29.40;99.90;;;;;;4997447;28;20050;-83
2023/08/19 09:41:41;;;;;;;4.25;2.30;;;29.40;98.90;;;;;;4994039;28;20047;-83
2023/08/19 09:44:14;;;;;;;4.30;2.00;;;29.30;99.70;;;;;;4989623;28;20448;-82
2023/08/19 09:46:44;;;;;;;5.65;1.90;;;29.30;99.90;;;;;;4994494;28;20110;-83
2023/08/19 09:49:23;;;;;;;5.97;2.50;;;29.20;99.90;;;;;;5000585;28;20054;-83
2023/08/19 09:51:57;;;;;;;3.38;2.10;;;29.20;99.90;;;;;;4995870;28;20051;-82
2023/08/19 09:54:24;;;;;;;6.32;2.75;;;29.20;99.90;;;;;;4997145;28;20073;-83
2023/08/19 09:56:56;;;;;;;7.15;2.15;;;29.20;99.90;;;;;;4992068;28;20055;-83
2023/08/19 09:59:24;;;;;;;6.30;2.60;;;29.10;99.90;;;;;;4990912;28;20493;-82
2023/08/19 10:01:52;;;;;;;3.75;1.98;;;29.10;99.90;;;;;;4997146;28;20054;-82
2023/08/19 10:04:19;;;;;;;7.50;2.38;;;29.10;99.90;;;;;;5003568;28;20121;-83
2023/08/19 10:06:49;;;;;;;6.43;2.60;;;29.10;99.90;;;;;;4996684;28;20081;-82
2023/08/19 10:09:20;;;;;;;6.13;2.35;;;29.10;99.90;;;;;;4995821;28;20086;-83
2023/08/19 10:11:50;;;;;;;6.57;2.40;;;29.00;99.90;;;;;;4994292;28;20055;-83
2023/08/19 10:14:23;;;;;;;7.57;2.65;;;29.00;99.90;;;;;;4987761;28;20071;-83
2023/08/19 10:16:51;;;;;;;5.18;2.40;;;29.00;99.90;;;;;;4959959;28;1056337;-83
2023/08/19 10:19:21;;;;;;;5.78;2.30;;;29.00;99.90;;;;;;5006476;28;20053;-83
2023/08/19 10:21:50;;;;;;;12.05;2.20;;;28.90;99.90;;;;;;4994561;28;20047;-83
2023/08/19 10:24:17;;;;;;;6.75;2.25;;;28.90;99.90;;;;;;4998672;28;20054;-83
2023/08/19 10:26:50;;;;;;;7.13;2.72;;;28.90;99.90;;;;;;4993541;28;20050;-83
2023/08/19 10:29:17;;;;;;;5.53;2.65;;;28.90;99.90;;;;;;4992490;28;20108;-82
2023/08/19 10:31:44;;;;;;;4.00;1.98;;;28.90;99.90;;;;;;4999159;28;20042;-82
2023/08/19 10:34:25;;;;;;;5.72;2.90;;;28.90;99.90;;;;;;4997860;28;20054;-82
2023/08/19 10:37:11;;;;;;;3.17;2.05;;;28.90;99.90;;;;;;4993772;28;20051;-82
2023/08/19 10:39:38;;;;;;;7.60;2.53;;;28.90;99.90;;;;;;5001362;28;20042;-82
2023/08/19 10:42:05;;;;;;;8.48;2.45;;;28.90;99.90;;;;;;4990085;28;20066;-82
2023/08/19 10:44:33;;;;;;;7.38;2.08;;;28.90;99.90;;;;;;4995892;28;20050;-83
2023/08/19 10:47:13;;;;;;;5.70;2.30;;;29.00;99.90;;;;;;4997606;28;20051;-83
2023/08/19 10:49:40;;;;;;;3.55;2.28;;;29.00;99.90;;;;;;4996721;28;20090;-83
2023/08/19 10:52:07;;;;;;;9.50;2.33;;;29.00;99.90;;;;;;4991893;28;20085;-83
2023/08/19 10:54:40;;;;;;;6.45;2.80;;;29.10;99.90;;;;;;4995738;28;20045;-83
2023/08/19 10:57:22;;;;;;;7.22;2.40;;;29.10;99.90;;;;;;4989759;28;20054;-83
2023/08/19 10:59:58;;;;;;;5.57;2.42;;;29.10;99.90;;;;;;5012663;28;20046;-84
2023/08/19 11:02:30;;;;;;;5.80;2.03;;;29.10;99.90;;;;;;4998618;28;20050;-83
2023/08/19 11:04:58;;;;;;;4.93;2.25;;;29.20;99.90;;;;;;4996825;28;20141;-83
2023/08/19 11:07:25;;;;;;;7.53;2.65;;;29.20;99.90;;;;;;4992978;28;20109;-82
2023/08/19 11:09:56;;;;;;;7.90;2.50;;;29.30;99.90;;;;;;4994526;28;20054;-82
2023/08/19 11:12:26;;;;;;;6.20;2.70;;;29.30;99.90;;;;;;4988933;28;20058;-82
2023/08/19 11:14:56;;;;;;;6.30;2.30;;;29.30;99.70;;;;;;4995863;28;20046;-83
2023/08/19 11:17:28;;;;;;;4.80;2.25;;;29.40;99.90;;;;;;4997031;28;20070;-82
2023/08/19 11:19:55;;;;;;;7.75;2.60;;;29.40;99.50;;;;;;4996018;28;20047;-83
2023/08/19 11:22:23;;;;;;;6.32;2.47;;;29.40;99.90;;;;;;4991030;28;20047;-83
2023/08/19 11:24:50;;;;;;;5.13;2.13;;;29.40;99.70;;;;;;4994111;28;20116;-83
2023/08/19 11:27:18;;;;;;;6.22;2.08;;;29.50;99.90;;;;;;4987865;28;20054;-83
2023/08/19 11:29:48;;;;;;;6.03;2.40;;;29.50;99.90;;;;;;5001434;28;20053;-83
2023/08/19 11:32:19;;;;;;;4.95;2.60;;;29.50;99.90;;;;;;4994234;28;20050;-82
2023/08/19 11:34:46;;;;;;;7.15;2.50;;;29.50;99.20;;;;;;4997124;28;20520;-83
2023/08/19 11:37:13;;;;;;;5.03;2.20;;;29.60;99.30;;;;;;4992130;28;20468;-83
2023/08/19 11:39:40;;;;;;;6.18;2.30;;;29.70;98.90;;;;;;5000748;28;20042;-83
2023/08/19 11:42:07;;;;;;;8.60;2.50;;;29.80;98.80;;;;;;4997540;28;20113;-82
2023/08/19 11:44:35;;;;;;;5.30;2.35;;;29.80;99.40;;;;;;5005622;28;20054;-83
2023/08/19 11:47:02;;;;;;;5.97;2.40;;;29.80;99.70;;;;;;4998311;28;20070;-83
2023/08/19 11:49:29;;;;;;;12.40;2.10;;;29.80;99.90;;;;;;5001688;28;20055;-82
2023/08/19 11:51:58;;;;;;;11.20;2.45;;;29.80;99.40;;;;;;5007596;28;20051;-82
2023/08/19 11:54:25;;;;;;;11.30;2.30;;;29.80;99.90;;;;;;5001346;28;20050;-83
2023/08/19 11:56:54;;;;;;;11.52;2.58;;;29.90;99.50;;;;;;5001308;28;20054;-82
2023/08/19 11:59:32;;;;;;;6.30;2.83;;;29.90;99.90;;;;;;5008869;28;20051;-82
2023/08/19 12:02:03;;;;;;;5.93;2.28;;;29.90;99.90;;;;;;5004041;28;20061;-83
2023/08/19 12:04:36;;;;;;;3.92;1.85;;;30.00;99.90;;;;;;5001730;28;20061;-82
2023/08/19 12:07:04;;;;;;;10.52;2.70;;;30.00;99.90;;;;;;4991689;28;20078;-83
2023/08/19 12:09:38;;;;;;;3.47;1.90;;;30.10;99.90;;;;;;5000336;28;20054;-83
2023/08/19 12:12:10;;;;;;;5.80;2.53;;;30.20;99.90;;;;;;5002347;28;20051;-83
2023/08/19 12:14:37;;;;;;;8.63;2.13;;;30.20;99.70;;;;;;5004245;28;20061;-83
2023/08/19 12:17:08;;;;;;;4.45;2.40;;;30.30;99.90;;;;;;4996619;28;20050;-83
2023/08/19 12:19:35;;;;;;;6.63;2.63;;;30.40;99.90;;;;;;5001803;28;20070;-83
2023/08/19 12:22:03;;;;;;;4.78;2.38;;;30.40;99.80;;;;;;4991851;28;20046;-83
2023/08/19 12:24:30;;;;;;;4.05;2.55;;;30.50;99.10;;;;;;5001871;28;20051;-82
2023/08/19 12:26:57;;;;;;;7.45;2.33;;;30.70;98.50;;;;;;5004036;28;20077;-83
2023/08/19 12:29:24;;;;;;;8.55;2.30;;;30.80;98.40;;;;;;5003794;28;20058;-83
2023/08/19 12:31:50;;;;;;;6.63;2.65;;;31.00;98.70;;;;;;4998971;28;20090;-84
2023/08/19 12:34:18;;;;;;;8.38;2.50;;;31.10;98.90;;;;;;5001410;28;20043;-83
2023/08/19 12:36:44;;;;;;;8.23;2.88;;;31.20;98.10;;;;;;4996402;28;20042;-83
2023/08/19 12:39:12;;;;;;;9.15;2.45;;;31.40;98.20;;;;;;5008076;28;20054;-83
2023/08/19 12:41:39;;;;;;;6.75;2.30;;;31.40;97.90;;;;;;5006476;28;20042;-83
2023/08/19 12:44:06;;;;;;;9.65;2.67;;;31.60;97.50;;;;;;5003829;28;20046;-83
2023/08/19 12:46:44;;;;;;;7.82;2.42;;;31.70;97.70;;;;;;4999606;28;20054;-83
2023/08/19 12:49:11;;;;;;;5.07;2.35;;;31.80;97.80;;;;;;5000669;28;20054;-83
2023/08/19 12:51:39;;;;;;;6.80;2.30;;;31.90;97.80;;;;;;4993815;28;20050;-83